sensor_id;sensor_type;location;lat;lon;timestamp;pressure;altitude;pressure_sealevel;temperature;humidity
37298;BME280;30517;51.932;4.278;2023-03-21T00:00:11;101622.38;;;11.66;67.91
37298;BME280;30517;51.932;4.278;2023-03-21T00:02:52;101617.13;;;11.68;67.68
37298;BME280;30517;51.932;4.278;2023-03-21T00:05:33;101611.84;;;11.68;67.95
37298;BME280;30517;51.932;4.278;2023-03-21T00:08:14;101609.19;;;11.68;67.90
37298;BME280;30517;51.932;4.278;2023-03-21T00:10:55;101604.78;;;11.68;67.90
37298;BME280;30517;51.932;4.278;2023-03-21T00:13:36;101606.56;;;11.68;67.50
37298;BME280;30517;51.932;4.278;2023-03-21T00:16:22;101603.91;;;11.68;67.46
37298;BME280;30517;51.932;4.278;2023-03-21T00:19:02;101609.19;;;11.68;67.93
37298;BME280;30517;51.932;4.278;2023-03-21T00:21:45;101598.63;;;11.68;67.54
37298;BME280;30517;51.932;4.278;2023-03-21T00:24:26;101599.50;;;11.68;67.89
37298;BME280;30517;51.932;4.278;2023-03-21T00:27:07;101601.28;;;11.68;67.50
37298;BME280;30517;51.932;4.278;2023-03-21T00:29:48;101603.91;;;11.68;67.77
37298;BME280;30517;51.932;4.278;2023-03-21T00:32:29;101598.63;;;11.68;67.55
37298;BME280;30517;51.932;4.278;2023-03-21T00:35:09;101589.81;;;11.69;68.26
37298;BME280;30517;51.932;4.278;2023-03-21T00:37:50;101593.34;;;11.68;68.22
37298;BME280;30517;51.932;4.278;2023-03-21T00:40:31;101597.75;;;11.69;67.68
37298;BME280;30517;51.932;4.278;2023-03-21T00:43:11;101591.56;;;11.68;67.76
37298;BME280;30517;51.932;4.278;2023-03-21T00:45:57;101583.66;;;11.68;67.82
37298;BME280;30517;51.932;4.278;2023-03-21T00:48:40;101584.53;;;11.69;67.58
37298;BME280;30517;51.932;4.278;2023-03-21T00:51:21;101581.91;;;11.67;67.87
37298;BME280;30517;51.932;4.278;2023-03-21T00:54:06;101581.00;;;11.68;68.26
37298;BME280;30517;51.932;4.278;2023-03-21T00:56:46;101578.38;;;11.68;67.85
37298;BME280;30517;51.932;4.278;2023-03-21T00:59:27;101573.97;;;11.69;67.20
37298;BME280;30517;51.932;4.278;2023-03-21T01:02:08;101568.66;;;11.69;67.67
37298;BME280;30517;51.932;4.278;2023-03-21T01:04:53;101566.91;;;11.68;67.87
37298;BME280;30517;51.932;4.278;2023-03-21T01:07:34;101561.63;;;11.68;67.84
37298;BME280;30517;51.932;4.278;2023-03-21T01:10:14;101563.38;;;11.69;67.13
37298;BME280;30517;51.932;4.278;2023-03-21T01:12:55;101565.16;;;11.68;67.36
37298;BME280;30517;51.932;4.278;2023-03-21T01:15:36;101555.47;;;11.69;67.89
37298;BME280;30517;51.932;4.278;2023-03-21T01:18:23;101546.66;;;11.68;67.57
37298;BME280;30517;51.932;4.278;2023-03-21T01:21:07;101542.25;;;11.69;67.77
37298;BME280;30517;51.932;4.278;2023-03-21T01:23:48;101540.50;;;11.68;67.68
37298;BME280;30517;51.932;4.278;2023-03-21T01:26:29;101535.22;;;11.68;67.28
37298;BME280;30517;51.932;4.278;2023-03-21T01:29:09;101536.97;;;11.69;68.02
37298;BME280;30517;51.932;4.278;2023-03-21T01:31:50;101542.25;;;11.69;67.57
37298;BME280;30517;51.932;4.278;2023-03-21T01:34:31;101537.88;;;11.69;67.81
37298;BME280;30517;51.932;4.278;2023-03-21T01:37:12;101538.75;;;11.70;67.43
37298;BME280;30517;51.932;4.278;2023-03-21T01:39:53;101544.88;;;11.69;67.49
37298;BME280;30517;51.932;4.278;2023-03-21T01:42:34;101542.25;;;11.69;67.38
37298;BME280;30517;51.932;4.278;2023-03-21T01:48:14;101535.22;;;11.68;67.95
37298;BME280;30517;51.932;4.278;2023-03-21T01:50:55;101535.22;;;11.68;67.66
37298;BME280;30517;51.932;4.278;2023-03-21T01:53:36;101538.75;;;11.70;68.05
37298;BME280;30517;51.932;4.278;2023-03-21T01:56:25;101533.44;;;11.68;67.83
37298;BME280;30517;51.932;4.278;2023-03-21T01:59:09;101526.38;;;11.69;67.29
37298;BME280;30517;51.932;4.278;2023-03-21T02:01:51;101530.78;;;11.68;67.24
37298;BME280;30517;51.932;4.278;2023-03-21T02:04:32;101525.50;;;11.68;67.71
37298;BME280;30517;51.932;4.278;2023-03-21T02:07:13;101522.88;;;11.68;67.42
37298;BME280;30517;51.932;4.278;2023-03-21T02:09:57;101518.47;;;11.69;67.58
37298;BME280;30517;51.932;4.278;2023-03-21T02:12:38;101515.81;;;11.69;67.88
37298;BME280;30517;51.932;4.278;2023-03-21T02:15:19;101514.97;;;11.70;68.07
37298;BME280;30517;51.932;4.278;2023-03-21T02:21:04;101499.97;;;11.69;67.14
37298;BME280;30517;51.932;4.278;2023-03-21T02:40:42;101409.94;;;11.17;67.30
37298;BME280;30517;51.932;4.278;2023-03-21T02:43:30;101483.22;;;11.68;67.53
37298;BME280;30517;51.932;4.278;2023-03-21T02:46:17;101478.81;;;11.69;67.51
37298;BME280;30517;51.932;4.278;2023-03-21T02:49:02;101478.81;;;11.69;67.64
37298;BME280;30517;51.932;4.278;2023-03-21T02:51:47;101478.81;;;11.69;67.15
37298;BME280;30517;51.932;4.278;2023-03-21T02:54:29;101471.78;;;11.68;67.98
37298;BME280;30517;51.932;4.278;2023-03-21T02:57:10;101477.06;;;11.68;68.11
37298;BME280;30517;51.932;4.278;2023-03-21T02:59:52;101479.72;;;11.69;68.04
37298;BME280;30517;51.932;4.278;2023-03-21T03:02:33;101475.31;;;11.70;67.62
37298;BME280;30517;51.932;4.278;2023-03-21T03:05:16;101467.38;;;11.68;67.41
37298;BME280;30517;51.932;4.278;2023-03-21T03:08:05;101473.53;;;11.69;67.80
37298;BME280;30517;51.932;4.278;2023-03-21T03:11:07;101472.69;;;11.70;68.12
37298;BME280;30517;51.932;4.278;2023-03-21T03:14:01;101468.25;;;11.67;67.48
37298;BME280;30517;51.932;4.278;2023-03-21T03:16:48;101470.91;;;11.67;67.87
37298;BME280;30517;51.932;4.278;2023-03-21T03:19:35;101459.47;;;11.67;67.53
37298;BME280;30517;51.932;4.278;2023-03-21T03:22:29;101465.63;;;11.67;67.74
37298;BME280;30517;51.932;4.278;2023-03-21T03:25:13;101461.19;;;11.66;67.93
37298;BME280;30517;51.932;4.278;2023-03-21T03:27:57;101462.97;;;11.66;68.18
37298;BME280;30517;51.932;4.278;2023-03-21T03:30:40;101462.09;;;11.67;67.79
37298;BME280;30517;51.932;4.278;2023-03-21T03:33:22;101459.47;;;11.67;67.94
37298;BME280;30517;51.932;4.278;2023-03-21T03:36:04;101454.16;;;11.67;67.88
37298;BME280;30517;51.932;4.278;2023-03-21T03:38:45;101456.81;;;11.68;67.89
37298;BME280;30517;51.932;4.278;2023-03-21T03:41:28;101451.53;;;11.67;67.65
37298;BME280;30517;51.932;4.278;2023-03-21T03:44:08;101457.69;;;11.67;67.27
37298;BME280;30517;51.932;4.278;2023-03-21T03:46:57;101456.81;;;11.67;67.77
37298;BME280;30517;51.932;4.278;2023-03-21T03:49:45;101446.25;;;11.67;67.91
37298;BME280;30517;51.932;4.278;2023-03-21T03:52:31;101446.25;;;11.67;67.84
37298;BME280;30517;51.932;4.278;2023-03-21T03:55:15;101443.59;;;11.65;67.99
37298;BME280;30517;51.932;4.278;2023-03-21T03:57:56;101446.22;;;11.65;67.66
37298;BME280;30517;51.932;4.278;2023-03-21T04:00:37;101442.72;;;11.65;67.29
37298;BME280;30517;51.932;4.278;2023-03-21T04:03:18;101446.22;;;11.65;67.63
37298;BME280;30517;51.932;4.278;2023-03-21T04:05:59;101429.50;;;11.65;67.38
37298;BME280;30517;51.932;4.278;2023-03-21T04:08:39;101440.06;;;11.65;67.44
37298;BME280;30517;51.932;4.278;2023-03-21T04:11:20;101429.47;;;11.63;68.06
37298;BME280;30517;51.932;4.278;2023-03-21T04:14:01;101429.47;;;11.63;67.95
37298;BME280;30517;51.932;4.278;2023-03-21T04:16:42;101425.09;;;11.64;68.31
37298;BME280;30517;51.932;4.278;2023-03-21T04:19:25;101427.75;;;11.64;68.15
37298;BME280;30517;51.932;4.278;2023-03-21T04:22:06;101422.44;;;11.62;67.71
37298;BME280;30517;51.932;4.278;2023-03-21T04:24:47;101418.91;;;11.62;67.99
37298;BME280;30517;51.932;4.278;2023-03-21T04:27:28;101411.84;;;11.61;67.82
37298;BME280;30517;51.932;4.278;2023-03-21T04:30:09;101417.13;;;11.61;68.31
37298;BME280;30517;51.932;4.278;2023-03-21T04:32:51;101410.97;;;11.60;68.48
37298;BME280;30517;51.932;4.278;2023-03-21T04:35:40;101413.63;;;11.60;67.93
37298;BME280;30517;51.932;4.278;2023-03-21T04:38:22;101409.22;;;11.59;68.16
37298;BME280;30517;51.932;4.278;2023-03-21T04:41:02;101415.38;;;11.60;67.97
37298;BME280;30517;51.932;4.278;2023-03-21T04:43:43;101408.34;;;11.59;68.76
37298;BME280;30517;51.932;4.278;2023-03-21T04:46:24;101401.28;;;11.58;67.76
37298;BME280;30517;51.932;4.278;2023-03-21T04:49:05;101403.06;;;11.59;68.36
37298;BME280;30517;51.932;4.278;2023-03-21T04:51:46;101402.16;;;11.58;68.07
37298;BME280;30517;51.932;4.278;2023-03-21T04:54:27;101391.59;;;11.57;68.28
37298;BME280;30517;51.932;4.278;2023-03-21T04:57:08;101396.88;;;11.57;68.21
37298;BME280;30517;51.932;4.278;2023-03-21T04:59:48;101395.09;;;11.56;68.10
37298;BME280;30517;51.932;4.278;2023-03-21T05:02:29;101389.81;;;11.56;68.57
37298;BME280;30517;51.932;4.278;2023-03-21T05:05:10;101387.19;;;11.56;68.88
37298;BME280;30517;51.932;4.278;2023-03-21T05:07:51;101393.38;;;11.56;68.80
37298;BME280;30517;51.932;4.278;2023-03-21T05:10:31;101395.13;;;11.57;68.61
37298;BME280;30517;51.932;4.278;2023-03-21T05:13:12;101392.47;;;11.56;68.47
37298;BME280;30517;51.932;4.278;2023-03-21T05:15:53;101395.09;;;11.56;68.73
37298;BME280;30517;51.932;4.278;2023-03-21T05:18:34;101399.50;;;11.55;68.63
37298;BME280;30517;51.932;4.278;2023-03-21T05:21:17;101397.75;;;11.56;68.57
37298;BME280;30517;51.932;4.278;2023-03-21T05:23:58;101386.31;;;11.55;68.43
37298;BME280;30517;51.932;4.278;2023-03-21T05:26:42;101390.75;;;11.67;68.50
37298;BME280;30517;51.932;4.278;2023-03-21T05:29:23;101392.50;;;11.68;68.10
37298;BME280;30517;51.932;4.278;2023-03-21T05:32:04;101396.94;;;11.72;67.67
37298;BME280;30517;51.932;4.278;2023-03-21T05:34:46;101393.41;;;11.73;67.96
37298;BME280;30517;51.932;4.278;2023-03-21T05:37:27;101397.81;;;11.72;68.37
37298;BME280;30517;51.932;4.278;2023-03-21T05:40:08;101395.16;;;11.71;67.87
37298;BME280;30517;51.932;4.278;2023-03-21T05:42:49;101396.91;;;11.70;68.09
37298;BME280;30517;51.932;4.278;2023-03-21T05:45:29;101396.03;;;11.70;67.65
37298;BME280;30517;51.932;4.278;2023-03-21T05:48:10;101397.81;;;11.69;67.45
37298;BME280;30517;51.932;4.278;2023-03-21T05:50:52;101396.91;;;11.69;67.55
37298;BME280;30517;51.932;4.278;2023-03-21T05:53:32;101397.78;;;11.68;67.74
37298;BME280;30517;51.932;4.278;2023-03-21T05:56:13;101385.47;;;11.67;67.14
37298;BME280;30517;51.932;4.278;2023-03-21T05:58:54;101393.41;;;11.67;67.08
37298;BME280;30517;51.932;4.278;2023-03-21T06:01:35;101401.31;;;11.67;67.59
37298;BME280;30517;51.932;4.278;2023-03-21T06:04:15;101400.41;;;11.66;67.39
37298;BME280;30517;51.932;4.278;2023-03-21T06:06:56;101401.31;;;11.67;67.27
37298;BME280;30517;51.932;4.278;2023-03-21T06:09:37;101389.84;;;11.65;67.54
37298;BME280;30517;51.932;4.278;2023-03-21T06:12:17;101396.03;;;11.65;67.76
37298;BME280;30517;51.932;4.278;2023-03-21T06:14:58;101396.03;;;11.65;67.81
37298;BME280;30517;51.932;4.278;2023-03-21T06:17:40;101397.78;;;11.65;67.75
37298;BME280;30517;51.932;4.278;2023-03-21T06:20:20;101402.19;;;11.64;67.46
37298;BME280;30517;51.932;4.278;2023-03-21T06:23:01;101402.19;;;11.64;67.82
37298;BME280;30517;51.932;4.278;2023-03-21T06:25:42;101396.91;;;11.64;67.99
37298;BME280;30517;51.932;4.278;2023-03-21T06:28:23;101396.03;;;11.64;67.40
37298;BME280;30517;51.932;4.278;2023-03-21T06:31:03;101395.13;;;11.63;67.49
37298;BME280;30517;51.932;4.278;2023-03-21T06:33:44;101387.22;;;11.62;68.07
37298;BME280;30517;51.932;4.278;2023-03-21T06:36:25;101388.97;;;11.63;67.32
37298;BME280;30517;51.932;4.278;2023-03-21T06:39:06;101381.06;;;11.61;68.08
37298;BME280;30517;51.932;4.278;2023-03-21T06:41:47;101377.50;;;11.61;67.92
37298;BME280;30517;51.932;4.278;2023-03-21T06:44:28;101374.84;;;11.61;67.65
37298;BME280;30517;51.932;4.278;2023-03-21T06:47:09;101363.41;;;11.60;67.62
37298;BME280;30517;51.932;4.278;2023-03-21T06:49:49;101369.56;;;11.61;67.49
37298;BME280;30517;51.932;4.278;2023-03-21T06:52:30;101362.53;;;11.60;67.61
37298;BME280;30517;51.932;4.278;2023-03-21T06:55:11;101349.31;;;11.60;67.37
37298;BME280;30517;51.932;4.278;2023-03-21T06:57:52;101352.88;;;11.59;67.83
37298;BME280;30517;51.932;4.278;2023-03-21T07:00:33;101350.22;;;11.59;68.12
37298;BME280;30517;51.932;4.278;2023-03-21T07:03:14;101350.22;;;11.59;67.25
37298;BME280;30517;51.932;4.278;2023-03-21T07:05:54;101342.28;;;11.59;67.71
37298;BME280;30517;51.932;4.278;2023-03-21T07:08:35;101335.22;;;11.58;67.98
37298;BME280;30517;51.932;4.278;2023-03-21T07:11:16;101343.16;;;11.59;67.15
37298;BME280;30517;51.932;4.278;2023-03-21T07:13:57;101343.16;;;11.58;67.82
37298;BME280;30517;51.932;4.278;2023-03-21T07:16:37;101343.16;;;11.58;67.97
37298;BME280;30517;51.932;4.278;2023-03-21T07:19:18;101344.91;;;11.56;67.71
37298;BME280;30517;51.932;4.278;2023-03-21T07:21:59;101349.31;;;11.55;67.73
37298;BME280;30517;51.932;4.278;2023-03-21T07:24:40;101356.38;;;11.55;68.29
37298;BME280;30517;51.932;4.278;2023-03-21T07:27:21;101346.66;;;11.52;68.03
37298;BME280;30517;51.932;4.278;2023-03-21T07:30:04;101337.00;;;11.51;68.46
37298;BME280;30517;51.932;4.278;2023-03-21T07:32:45;101330.84;;;11.50;68.29
37298;BME280;30517;51.932;4.278;2023-03-21T07:35:26;101344.91;;;11.49;68.55
37298;BME280;30517;51.932;4.278;2023-03-21T07:38:07;101336.09;;;11.47;68.62
37298;BME280;30517;51.932;4.278;2023-03-21T07:40:48;101336.09;;;11.47;68.27
37298;BME280;30517;51.932;4.278;2023-03-21T07:43:28;101331.69;;;11.46;68.03
37298;BME280;30517;51.932;4.278;2023-03-21T07:46:09;101328.16;;;11.47;68.72
37298;BME280;30517;51.932;4.278;2023-03-21T07:48:50;101328.16;;;11.47;68.56
37298;BME280;30517;51.932;4.278;2023-03-21T07:51:30;101325.50;;;11.47;68.42
37298;BME280;30517;51.932;4.278;2023-03-21T07:54:11;101324.63;;;11.47;68.08
37298;BME280;30517;51.932;4.278;2023-03-21T07:56:52;101319.34;;;11.47;68.29
37298;BME280;30517;51.932;4.278;2023-03-21T07:59:33;101314.94;;;11.47;68.50
37298;BME280;30517;51.932;4.278;2023-03-21T08:02:14;101310.56;;;11.48;68.33
37298;BME280;30517;51.932;4.278;2023-03-21T08:04:55;101318.47;;;11.46;67.93
37298;BME280;30517;51.932;4.278;2023-03-21T08:07:36;101314.97;;;11.46;68.00
37298;BME280;30517;51.932;4.278;2023-03-21T08:10:17;101307.91;;;11.46;68.33
37298;BME280;30517;51.932;4.278;2023-03-21T08:12:58;101308.78;;;11.47;68.71
37298;BME280;30517;51.932;4.278;2023-03-21T08:15:38;101312.31;;;11.46;68.24
37298;BME280;30517;51.932;4.278;2023-03-21T08:18:21;101315.84;;;11.46;68.60
37298;BME280;30517;51.932;4.278;2023-03-21T08:21:01;101307.91;;;11.46;68.82
37298;BME280;30517;51.932;4.278;2023-03-21T08:23:42;101305.28;;;11.46;68.42
37298;BME280;30517;51.932;4.278;2023-03-21T08:26:23;101301.75;;;11.47;68.63
37298;BME280;30517;51.932;4.278;2023-03-21T08:29:05;101298.25;;;11.48;68.01
37298;BME280;30517;51.932;4.278;2023-03-21T08:31:46;101296.50;;;11.50;68.35
37298;BME280;30517;51.932;4.278;2023-03-21T08:34:27;101297.38;;;11.51;68.68
37298;BME280;30517;51.932;4.278;2023-03-21T08:37:07;101285.91;;;11.52;68.50
37298;BME280;30517;51.932;4.278;2023-03-21T08:39:48;101285.91;;;11.52;68.85
37298;BME280;30517;51.932;4.278;2023-03-21T08:42:29;101285.91;;;11.52;68.23
37298;BME280;30517;51.932;4.278;2023-03-21T08:45:10;101281.50;;;11.52;68.43
37298;BME280;30517;51.932;4.278;2023-03-21T08:47:52;101285.03;;;11.53;68.43
37298;BME280;30517;51.932;4.278;2023-03-21T08:50:32;101293.84;;;11.54;68.28
37298;BME280;30517;51.932;4.278;2023-03-21T08:53:13;101280.63;;;11.54;68.83
37298;BME280;30517;51.932;4.278;2023-03-21T08:55:54;101274.47;;;11.55;68.58
37298;BME280;30517;51.932;4.278;2023-03-21T08:58:35;101257.72;;;11.56;68.70
37298;BME280;30517;51.932;4.278;2023-03-21T09:01:16;101267.44;;;11.57;68.41
37298;BME280;30517;51.932;4.278;2023-03-21T09:03:56;101263.88;;;11.58;68.65
37298;BME280;30517;51.932;4.278;2023-03-21T09:06:37;101263.88;;;11.58;68.66
37298;BME280;30517;51.932;4.278;2023-03-21T09:09:19;101259.50;;;11.57;68.88
37298;BME280;30517;51.932;4.278;2023-03-21T09:12:00;101263.00;;;11.57;68.86
37298;BME280;30517;51.932;4.278;2023-03-21T09:14:41;101254.22;;;11.60;68.88
37298;BME280;30517;51.932;4.278;2023-03-21T09:17:21;101259.50;;;11.60;68.14
37298;BME280;30517;51.932;4.278;2023-03-21T09:20:02;101254.22;;;11.61;68.77
37298;BME280;30517;51.932;4.278;2023-03-21T09:22:50;101263.00;;;11.60;69.02
37298;BME280;30517;51.932;4.278;2023-03-21T09:25:31;101250.66;;;11.61;69.32
37298;BME280;30517;51.932;4.278;2023-03-21T09:28:12;101251.56;;;11.60;68.81
37298;BME280;30517;51.932;4.278;2023-03-21T09:30:53;101257.75;;;11.62;69.27
37298;BME280;30517;51.932;4.278;2023-03-21T09:33:34;101259.50;;;11.64;68.95
37298;BME280;30517;51.932;4.278;2023-03-21T09:36:15;101250.69;;;11.65;68.80
37298;BME280;30517;51.932;4.278;2023-03-21T09:38:58;101258.63;;;11.67;68.57
37298;BME280;30517;51.932;4.278;2023-03-21T09:44:39;101262.13;;;11.70;68.36
37298;BME280;30517;51.932;4.278;2023-03-21T09:47:24;101270.09;;;11.72;68.42
37298;BME280;30517;51.932;4.278;2023-03-21T09:50:25;101278.88;;;11.74;68.58
37298;BME280;30517;51.932;4.278;2023-03-21T09:53:13;101262.16;;;11.75;68.54
37298;BME280;30517;51.932;4.278;2023-03-21T09:56:00;101256.84;;;11.77;68.48
37298;BME280;30517;51.932;4.278;2023-03-21T09:58:46;101256.84;;;11.78;68.47
37298;BME280;30517;51.932;4.278;2023-03-21T10:01:31;101256.84;;;11.78;68.56
37298;BME280;30517;51.932;4.278;2023-03-21T10:04:13;101260.38;;;11.80;68.50
37298;BME280;30517;51.932;4.278;2023-03-21T10:06:59;101272.72;;;11.83;68.27
37298;BME280;30517;51.932;4.278;2023-03-21T10:09:41;101265.66;;;11.85;68.53
37298;BME280;30517;51.932;4.278;2023-03-21T10:12:22;101276.25;;;11.86;68.87
37298;BME280;30517;51.932;4.278;2023-03-21T10:15:04;101287.72;;;11.87;68.24
37298;BME280;30517;51.932;4.278;2023-03-21T10:17:53;101285.97;;;11.89;68.89
37298;BME280;30517;51.932;4.278;2023-03-21T10:20:35;101222.50;;;11.41;68.37
37298;BME280;30517;51.932;4.278;2023-03-21T10:23:18;101293.00;;;11.88;67.96
37298;BME280;30517;51.932;4.278;2023-03-21T10:26:00;101278.91;;;11.89;68.02
37298;BME280;30517;51.932;4.278;2023-03-21T10:28:42;101285.06;;;11.91;68.91
37298;BME280;30517;51.932;4.278;2023-03-21T10:31:25;101294.75;;;11.92;68.44
37298;BME280;30517;51.932;4.278;2023-03-21T10:34:12;101289.47;;;11.94;68.96
37298;BME280;30517;51.932;4.278;2023-03-21T10:36:55;101291.22;;;11.95;68.28
37298;BME280;30517;51.932;4.278;2023-03-21T10:39:40;101278.03;;;11.97;68.63
37298;BME280;30517;51.932;4.278;2023-03-21T10:42:26;101275.38;;;11.95;68.75
37298;BME280;30517;51.932;4.278;2023-03-21T10:45:16;101262.16;;;11.97;68.51
37298;BME280;30517;51.932;4.278;2023-03-21T10:47:57;101264.78;;;11.98;68.68
37298;BME280;30517;51.932;4.278;2023-03-21T10:50:38;101246.28;;;12.00;68.64
37298;BME280;30517;51.932;4.278;2023-03-21T10:53:20;101242.75;;;12.01;68.65
37298;BME280;30517;51.932;4.278;2023-03-21T10:56:01;101243.63;;;12.01;68.51
37298;BME280;30517;51.932;4.278;2023-03-21T10:58:45;101232.19;;;12.02;68.22
37298;BME280;30517;51.932;4.278;2023-03-21T11:01:34;101230.41;;;12.03;68.35
37298;BME280;30517;51.932;4.278;2023-03-21T11:04:16;101234.81;;;12.05;68.63
37298;BME280;30517;51.932;4.278;2023-03-21T11:06:58;101241.84;;;12.06;68.70
37298;BME280;30517;51.932;4.278;2023-03-21T11:09:43;101245.38;;;12.08;69.08
37298;BME280;30517;51.932;4.278;2023-03-21T11:12:30;101247.13;;;12.09;68.15
37298;BME280;30517;51.932;4.278;2023-03-21T11:15:24;101250.66;;;12.11;68.25
37298;BME280;30517;51.932;4.278;2023-03-21T11:18:13;101257.72;;;12.12;68.39
37298;BME280;30517;51.932;4.278;2023-03-21T11:21:12;101258.59;;;12.13;68.38
37298;BME280;30517;51.932;4.278;2023-03-21T11:23:54;101263.88;;;12.16;68.61
37298;BME280;30517;51.932;4.278;2023-03-21T11:26:36;101268.28;;;12.18;68.54
37298;BME280;30517;51.932;4.278;2023-03-21T11:29:22;101264.75;;;12.20;68.34
37298;BME280;30517;51.932;4.278;2023-03-21T11:32:12;101255.03;;;12.20;69.23
37298;BME280;30517;51.932;4.278;2023-03-21T11:35:31;101253.28;;;12.22;68.96
37298;BME280;30517;51.932;4.278;2023-03-21T11:38:01;101253.28;;;12.24;68.77
37298;BME280;30517;51.932;4.278;2023-03-21T11:40:51;101249.75;;;12.25;69.04
37298;BME280;30517;51.932;4.278;2023-03-21T11:43:36;101242.69;;;12.27;69.16
37298;BME280;30517;51.932;4.278;2023-03-21T11:46:21;101234.75;;;12.28;68.92
37298;BME280;30517;51.932;4.278;2023-03-21T11:49:02;101241.81;;;12.29;68.99
37298;BME280;30517;51.932;4.278;2023-03-21T11:51:56;101244.44;;;12.31;68.83
37298;BME280;30517;51.932;4.278;2023-03-21T11:54:51;101249.72;;;12.32;69.35
37298;BME280;30517;51.932;4.278;2023-03-21T11:57:56;101243.53;;;12.33;68.98
37298;BME280;30517;51.932;4.278;2023-03-21T12:00:37;101235.59;;;12.36;69.05
37298;BME280;30517;51.932;4.278;2023-03-21T12:03:58;101239.13;;;12.38;69.72
37298;BME280;30517;51.932;4.278;2023-03-21T12:06:34;101225.03;;;12.39;68.82
37298;BME280;30517;51.932;4.278;2023-03-21T12:25:47;101204.69;;;12.54;68.66
37298;BME280;30517;51.932;4.278;2023-03-21T12:28:40;101198.50;;;12.55;69.27
37298;BME280;30517;51.932;4.278;2023-03-21T12:31:34;101202.00;;;12.57;69.16
37298;BME280;30517;51.932;4.278;2023-03-21T12:45:56;101194.91;;;12.65;69.30
37298;BME280;30517;51.932;4.278;2023-03-21T12:48:46;101204.59;;;12.68;68.84
37298;BME280;30517;51.932;4.278;2023-03-21T12:51:29;101208.97;;;12.72;69.01
37298;BME280;30517;51.932;4.278;2023-03-21T12:57:21;101171.91;;;12.76;69.04
37298;BME280;30517;51.932;4.278;2023-03-21T13:00:04;101178.97;;;12.80;68.88
37298;BME280;30517;51.932;4.278;2023-03-21T13:11:02;101159.50;;;12.86;68.99
37298;BME280;30517;51.932;4.278;2023-03-21T13:16:26;101154.19;;;12.89;68.35
37298;BME280;30517;51.932;4.278;2023-03-21T13:19:15;101160.31;;;12.93;68.58
37298;BME280;30517;51.932;4.278;2023-03-21T13:24:49;101150.63;;;12.96;69.12
37298;BME280;30517;51.932;4.278;2023-03-21T13:27:34;101161.19;;;12.98;68.51
37298;BME280;30517;51.932;4.278;2023-03-21T13:30:19;101155.00;;;12.99;68.78
37298;BME280;30517;51.932;4.278;2023-03-21T13:33:05;101154.09;;;13.01;68.49
37298;BME280;30517;51.932;4.278;2023-03-21T13:35:53;101145.25;;;13.04;68.78
37298;BME280;30517;51.932;4.278;2023-03-21T13:38:35;101144.34;;;13.06;68.64
37298;BME280;30517;51.932;4.278;2023-03-21T13:41:35;101141.69;;;13.10;68.99
37298;BME280;30517;51.932;4.278;2023-03-21T13:44:21;101140.78;;;13.09;68.31
37298;BME280;30517;51.932;4.278;2023-03-21T13:47:21;101145.22;;;13.10;68.61
37298;BME280;30517;51.932;4.278;2023-03-21T13:55:57;101137.25;;;13.13;69.06
37298;BME280;30517;51.932;4.278;2023-03-21T14:04:16;101127.44;;;13.23;68.25
37298;BME280;30517;51.932;4.278;2023-03-21T14:07:05;101108.88;;;13.24;68.70
37298;BME280;30517;51.932;4.278;2023-03-21T14:09:58;101123.91;;;13.27;68.41
37298;BME280;30517;51.932;4.278;2023-03-21T14:12:40;101123.88;;;13.30;68.14
37298;BME280;30517;51.932;4.278;2023-03-21T14:15:25;101122.13;;;13.29;68.73
37298;BME280;30517;51.932;4.278;2023-03-21T14:18:06;101138.00;;;13.31;68.78
37298;BME280;30517;51.932;4.278;2023-03-21T14:20:51;101135.34;;;13.32;68.74
37298;BME280;30517;51.932;4.278;2023-03-21T14:23:32;101140.66;;;13.32;68.51
37298;BME280;30517;51.932;4.278;2023-03-21T14:26:13;101134.47;;;13.32;68.71
37298;BME280;30517;51.932;4.278;2023-03-21T14:28:55;101135.31;;;13.34;68.56
37298;BME280;30517;51.932;4.278;2023-03-21T14:31:35;101146.78;;;13.36;68.39
37298;BME280;30517;51.932;4.278;2023-03-21T14:34:18;101140.63;;;13.35;68.35
37298;BME280;30517;51.932;4.278;2023-03-21T14:36:59;101131.78;;;13.35;68.28
37298;BME280;30517;51.932;4.278;2023-03-21T14:39:40;101118.53;;;13.35;68.34
37298;BME280;30517;51.932;4.278;2023-03-21T14:42:23;101128.25;;;13.36;68.72
37298;BME280;30517;51.932;4.278;2023-03-21T14:45:24;101116.75;;;13.37;68.19
37298;BME280;30517;51.932;4.278;2023-03-21T14:48:09;101119.38;;;13.38;68.67
37298;BME280;30517;51.932;4.278;2023-03-21T14:50:52;101113.19;;;13.39;68.55
37298;BME280;30517;51.932;4.278;2023-03-21T14:53:38;101105.22;;;13.42;68.04
37298;BME280;30517;51.932;4.278;2023-03-21T14:56:21;101110.53;;;13.42;68.84
37298;BME280;30517;51.932;4.278;2023-03-21T14:59:02;101112.28;;;13.42;68.51
37298;BME280;30517;51.932;4.278;2023-03-21T15:01:44;101116.69;;;13.43;68.36
37298;BME280;30517;51.932;4.278;2023-03-21T15:04:26;101099.03;;;13.43;68.49
37298;BME280;30517;51.932;4.278;2023-03-21T15:07:21;101108.72;;;13.44;68.42
37298;BME280;30517;51.932;4.278;2023-03-21T15:10:04;101092.81;;;13.44;68.33
37298;BME280;30517;51.932;4.278;2023-03-21T15:12:52;101084.88;;;13.44;68.46
37298;BME280;30517;51.932;4.278;2023-03-21T15:15:33;101092.81;;;13.47;68.83
37298;BME280;30517;51.932;4.278;2023-03-21T15:18:15;101092.81;;;13.47;68.13
37298;BME280;30517;51.932;4.278;2023-03-21T15:21:02;101101.59;;;13.49;68.15
37298;BME280;30517;51.932;4.278;2023-03-21T15:23:43;101096.31;;;13.51;68.04
37298;BME280;30517;51.932;4.278;2023-03-21T15:26:25;101090.09;;;13.52;68.28
37298;BME280;30517;51.932;4.278;2023-03-21T15:29:06;101101.56;;;13.53;68.31
37298;BME280;30517;51.932;4.278;2023-03-21T15:31:47;101091.88;;;13.53;68.61
37298;BME280;30517;51.932;4.278;2023-03-21T15:34:28;101098.91;;;13.54;68.07